sensor_id;sensor_type;location;lat;lon;timestamp;P1;durP1;ratioP1;P2;durP2;ratioP2
20462;SDS011;10390;53.566;9.980;2022-07-29T00:00:06;4.70;;;3.58;;
20462;SDS011;10390;53.566;9.980;2022-07-29T00:02:34;3.92;;;3.28;;
20462;SDS011;10390;53.566;9.980;2022-07-29T00:05:00;3.95;;;3.55;;
20462;SDS011;10390;53.566;9.980;2022-07-29T00:07:27;4.03;;;3.28;;
20462;SDS011;10390;53.566;9.980;2022-07-29T00:09:53;4.22;;;3.42;;
20462;SDS011;10390;53.566;9.980;2022-07-29T00:12:19;5.03;;;3.45;;
20462;SDS011;10390;53.566;9.980;2022-07-29T00:14:47;4.50;;;3.55;;
20462;SDS011;10390;53.566;9.980;2022-07-29T00:17:13;4.30;;;3.60;;
20462;SDS011;10390;53.566;9.980;2022-07-29T00:19:39;4.05;;;3.40;;
20462;SDS011;10390;53.566;9.980;2022-07-29T00:22:05;4.97;;;3.55;;
20462;SDS011;10390;53.566;9.980;2022-07-29T00:24:31;4.30;;;3.53;;
20462;SDS011;10390;53.566;9.980;2022-07-29T00:26:56;4.50;;;3.90;;
20462;SDS011;10390;53.566;9.980;2022-07-29T00:29:22;4.97;;;3.95;;
20462;SDS011;10390;53.566;9.980;2022-07-29T00:31:48;5.55;;;4.65;;
20462;SDS011;10390;53.566;9.980;2022-07-29T00:34:14;5.60;;;5.00;;
20462;SDS011;10390;53.566;9.980;2022-07-29T00:36:59;6.05;;;4.97;;
20462;SDS011;10390;53.566;9.980;2022-07-29T00:39:25;6.93;;;5.78;;
20462;SDS011;10390;53.566;9.980;2022-07-29T00:41:51;4.97;;;4.18;;
20462;SDS011;10390;53.566;9.980;2022-07-29T00:44:17;5.93;;;4.90;;
20462;SDS011;10390;53.566;9.980;2022-07-29T00:46:42;6.60;;;5.30;;
20462;SDS011;10390;53.566;9.980;2022-07-29T00:49:08;9.65;;;7.70;;
20462;SDS011;10390;53.566;9.980;2022-07-29T00:51:35;7.60;;;6.32;;
20462;SDS011;10390;53.566;9.980;2022-07-29T00:54:02;7.25;;;5.93;;
20462;SDS011;10390;53.566;9.980;2022-07-29T00:56:32;6.20;;;5.05;;
20462;SDS011;10390;53.566;9.980;2022-07-29T00:58:59;5.82;;;4.85;;
20462;SDS011;10390;53.566;9.980;2022-07-29T01:01:25;6.28;;;5.18;;
20462;SDS011;10390;53.566;9.980;2022-07-29T01:03:51;7.50;;;5.90;;
20462;SDS011;10390;53.566;9.980;2022-07-29T01:06:18;6.60;;;5.07;;
20462;SDS011;10390;53.566;9.980;2022-07-29T01:08:47;5.03;;;4.40;;
20462;SDS011;10390;53.566;9.980;2022-07-29T01:11:17;5.53;;;4.63;;
20462;SDS011;10390;53.566;9.980;2022-07-29T01:13:43;5.30;;;4.50;;
20462;SDS011;10390;53.566;9.980;2022-07-29T01:27:47;5.00;;;3.85;;
20462;SDS011;10390;53.566;9.980;2022-07-29T01:30:28;5.03;;;4.20;;
20462;SDS011;10390;53.566;9.980;2022-07-29T01:32:59;5.13;;;3.95;;
20462;SDS011;10390;53.566;9.980;2022-07-29T01:35:33;5.65;;;3.85;;
20462;SDS011;10390;53.566;9.980;2022-07-29T01:38:05;4.85;;;3.83;;
20462;SDS011;10390;53.566;9.980;2022-07-29T01:40:42;4.88;;;3.90;;
20462;SDS011;10390;53.566;9.980;2022-07-29T01:43:21;4.95;;;3.72;;
20462;SDS011;10390;53.566;9.980;2022-07-29T01:45:54;4.30;;;3.53;;
20462;SDS011;10390;53.566;9.980;2022-07-29T01:51:16;4.45;;;3.50;;
20462;SDS011;10390;53.566;9.980;2022-07-29T01:53:47;4.65;;;3.63;;
20462;SDS011;10390;53.566;9.980;2022-07-29T01:56:23;4.88;;;3.90;;
20462;SDS011;10390;53.566;9.980;2022-07-29T01:58:50;5.18;;;4.10;;
20462;SDS011;10390;53.566;9.980;2022-07-29T02:01:18;4.10;;;3.47;;
20462;SDS011;10390;53.566;9.980;2022-07-29T02:03:47;4.80;;;3.42;;
20462;SDS011;10390;53.566;9.980;2022-07-29T02:06:15;4.50;;;3.53;;
20462;SDS011;10390;53.566;9.980;2022-07-29T02:08:44;4.22;;;3.53;;
20462;SDS011;10390;53.566;9.980;2022-07-29T02:11:12;4.80;;;3.60;;
20462;SDS011;10390;53.566;9.980;2022-07-29T02:13:38;4.60;;;3.60;;
20462;SDS011;10390;53.566;9.980;2022-07-29T02:16:06;4.72;;;3.40;;
20462;SDS011;10390;53.566;9.980;2022-07-29T02:18:35;4.28;;;3.45;;
20462;SDS011;10390;53.566;9.980;2022-07-29T02:21:04;4.13;;;3.35;;
20462;SDS011;10390;53.566;9.980;2022-07-29T02:23:30;4.30;;;3.33;;
20462;SDS011;10390;53.566;9.980;2022-07-29T02:25:57;4.45;;;3.50;;
20462;SDS011;10390;53.566;9.980;2022-07-29T02:28:28;4.20;;;3.40;;
20462;SDS011;10390;53.566;9.980;2022-07-29T02:30:57;4.53;;;3.30;;
20462;SDS011;10390;53.566;9.980;2022-07-29T02:33:26;4.53;;;3.53;;
20462;SDS011;10390;53.566;9.980;2022-07-29T02:35:53;4.57;;;3.67;;
20462;SDS011;10390;53.566;9.980;2022-07-29T02:38:20;5.15;;;3.63;;
20462;SDS011;10390;53.566;9.980;2022-07-29T02:41:10;4.10;;;3.20;;
20462;SDS011;10390;53.566;9.980;2022-07-29T02:43:39;4.00;;;3.40;;
20462;SDS011;10390;53.566;9.980;2022-07-29T02:46:08;4.53;;;3.40;;
20462;SDS011;10390;53.566;9.980;2022-07-29T02:48:48;4.47;;;3.30;;
20462;SDS011;10390;53.566;9.980;2022-07-29T02:51:28;4.57;;;3.38;;
20462;SDS011;10390;53.566;9.980;2022-07-29T02:54:01;4.18;;;3.38;;
20462;SDS011;10390;53.566;9.980;2022-07-29T02:56:31;4.75;;;3.55;;
20462;SDS011;10390;53.566;9.980;2022-07-29T02:59:01;4.65;;;3.42;;
20462;SDS011;10390;53.566;9.980;2022-07-29T03:01:33;4.47;;;3.20;;
20462;SDS011;10390;53.566;9.980;2022-07-29T03:04:04;4.43;;;3.10;;
20462;SDS011;10390;53.566;9.980;2022-07-29T03:06:30;4.03;;;2.78;;
20462;SDS011;10390;53.566;9.980;2022-07-29T03:08:59;4.30;;;3.20;;
20462;SDS011;10390;53.566;9.980;2022-07-29T03:11:25;4.10;;;3.03;;
20462;SDS011;10390;53.566;9.980;2022-07-29T03:13:51;5.07;;;3.40;;
20462;SDS011;10390;53.566;9.980;2022-07-29T03:16:19;4.25;;;3.38;;
20462;SDS011;10390;53.566;9.980;2022-07-29T03:18:45;4.68;;;3.20;;
20462;SDS011;10390;53.566;9.980;2022-07-29T03:21:12;4.65;;;3.40;;
20462;SDS011;10390;53.566;9.980;2022-07-29T03:23:38;4.10;;;3.03;;
20462;SDS011;10390;53.566;9.980;2022-07-29T03:26:10;4.63;;;3.30;;
20462;SDS011;10390;53.566;9.980;2022-07-29T03:28:37;4.35;;;3.05;;
20462;SDS011;10390;53.566;9.980;2022-07-29T03:31:02;4.43;;;3.30;;
20462;SDS011;10390;53.566;9.980;2022-07-29T03:33:28;4.93;;;3.20;;
20462;SDS011;10390;53.566;9.980;2022-07-29T03:35:55;4.53;;;3.50;;
20462;SDS011;10390;53.566;9.980;2022-07-29T03:38:22;4.40;;;3.03;;
20462;SDS011;10390;53.566;9.980;2022-07-29T03:41:04;4.50;;;3.40;;
20462;SDS011;10390;53.566;9.980;2022-07-29T03:43:36;5.13;;;3.22;;
20462;SDS011;10390;53.566;9.980;2022-07-29T03:46:06;4.65;;;3.58;;
20462;SDS011;10390;53.566;9.980;2022-07-29T03:48:34;3.83;;;2.67;;
20462;SDS011;10390;53.566;9.980;2022-07-29T03:51:05;4.78;;;3.30;;
20462;SDS011;10390;53.566;9.980;2022-07-29T03:53:31;4.63;;;3.20;;
20462;SDS011;10390;53.566;9.980;2022-07-29T03:55:59;4.40;;;3.30;;
20462;SDS011;10390;53.566;9.980;2022-07-29T03:58:27;4.18;;;3.08;;
20462;SDS011;10390;53.566;9.980;2022-07-29T04:00:55;4.63;;;3.20;;
20462;SDS011;10390;53.566;9.980;2022-07-29T04:03:22;4.57;;;3.17;;
20462;SDS011;10390;53.566;9.980;2022-07-29T04:05:58;4.72;;;3.53;;
20462;SDS011;10390;53.566;9.980;2022-07-29T04:08:33;4.10;;;3.20;;
20462;SDS011;10390;53.566;9.980;2022-07-29T04:11:00;4.57;;;3.17;;
20462;SDS011;10390;53.566;9.980;2022-07-29T04:13:27;4.13;;;2.60;;
20462;SDS011;10390;53.566;9.980;2022-07-29T04:15:53;4.65;;;3.22;;
20462;SDS011;10390;53.566;9.980;2022-07-29T04:18:19;4.72;;;3.40;;
20462;SDS011;10390;53.566;9.980;2022-07-29T04:20:45;4.72;;;3.28;;
20462;SDS011;10390;53.566;9.980;2022-07-29T04:23:10;4.20;;;3.13;;
20462;SDS011;10390;53.566;9.980;2022-07-29T04:25:37;4.75;;;3.30;;
20462;SDS011;10390;53.566;9.980;2022-07-29T04:28:04;4.25;;;2.95;;
20462;SDS011;10390;53.566;9.980;2022-07-29T04:30:31;4.25;;;3.15;;
20462;SDS011;10390;53.566;9.980;2022-07-29T04:32:59;4.22;;;3.00;;
20462;SDS011;10390;53.566;9.980;2022-07-29T04:35:30;4.20;;;3.38;;
20462;SDS011;10390;53.566;9.980;2022-07-29T04:37:59;4.20;;;3.00;;
20462;SDS011;10390;53.566;9.980;2022-07-29T04:40:25;5.15;;;2.92;;
20462;SDS011;10390;53.566;9.980;2022-07-29T04:42:51;4.60;;;3.20;;
20462;SDS011;10390;53.566;9.980;2022-07-29T04:45:17;4.53;;;3.03;;
20462;SDS011;10390;53.566;9.980;2022-07-29T04:47:42;4.70;;;3.13;;
20462;SDS011;10390;53.566;9.980;2022-07-29T04:50:09;4.22;;;2.95;;
20462;SDS011;10390;53.566;9.980;2022-07-29T04:52:35;4.30;;;3.15;;
20462;SDS011;10390;53.566;9.980;2022-07-29T04:55:02;4.00;;;3.10;;
20462;SDS011;10390;53.566;9.980;2022-07-29T04:57:29;4.20;;;3.08;;
20462;SDS011;10390;53.566;9.980;2022-07-29T04:59:55;4.72;;;3.10;;
20462;SDS011;10390;53.566;9.980;2022-07-29T05:02:20;4.10;;;2.90;;
20462;SDS011;10390;53.566;9.980;2022-07-29T05:04:47;3.80;;;2.85;;
20462;SDS011;10390;53.566;9.980;2022-07-29T05:07:13;4.10;;;3.00;;
20462;SDS011;10390;53.566;9.980;2022-07-29T05:09:39;4.20;;;3.00;;
20462;SDS011;10390;53.566;9.980;2022-07-29T05:12:05;4.13;;;2.83;;
20462;SDS011;10390;53.566;9.980;2022-07-29T05:14:32;3.80;;;2.90;;
20462;SDS011;10390;53.566;9.980;2022-07-29T05:16:58;4.80;;;3.17;;
20462;SDS011;10390;53.566;9.980;2022-07-29T05:19:23;4.35;;;2.80;;
20462;SDS011;10390;53.566;9.980;2022-07-29T05:21:49;3.75;;;2.80;;
20462;SDS011;10390;53.566;9.980;2022-07-29T05:24:15;4.10;;;3.05;;
20462;SDS011;10390;53.566;9.980;2022-07-29T05:26:41;4.32;;;2.97;;
20462;SDS011;10390;53.566;9.980;2022-07-29T05:29:07;4.15;;;3.00;;
20462;SDS011;10390;53.566;9.980;2022-07-29T05:31:33;4.15;;;2.90;;
20462;SDS011;10390;53.566;9.980;2022-07-29T05:33:59;5.20;;;2.85;;
20462;SDS011;10390;53.566;9.980;2022-07-29T05:36:25;4.30;;;3.00;;
20462;SDS011;10390;53.566;9.980;2022-07-29T05:38:51;4.55;;;2.85;;
20462;SDS011;10390;53.566;9.980;2022-07-29T05:41:17;4.80;;;3.35;;
20462;SDS011;10390;53.566;9.980;2022-07-29T05:43:44;4.10;;;3.03;;
20462;SDS011;10390;53.566;9.980;2022-07-29T05:46:10;4.35;;;3.03;;
20462;SDS011;10390;53.566;9.980;2022-07-29T05:48:35;4.32;;;3.28;;
20462;SDS011;10390;53.566;9.980;2022-07-29T05:51:01;4.10;;;3.28;;
20462;SDS011;10390;53.566;9.980;2022-07-29T05:53:28;4.97;;;3.55;;
20462;SDS011;10390;53.566;9.980;2022-07-29T05:55:53;4.38;;;3.42;;
20462;SDS011;10390;53.566;9.980;2022-07-29T05:58:19;4.55;;;3.33;;
20462;SDS011;10390;53.566;9.980;2022-07-29T06:00:45;5.25;;;3.08;;
20462;SDS011;10390;53.566;9.980;2022-07-29T06:03:12;4.72;;;3.10;;
20462;SDS011;10390;53.566;9.980;2022-07-29T06:05:38;3.88;;;3.05;;
20462;SDS011;10390;53.566;9.980;2022-07-29T06:08:04;4.20;;;3.50;;
20462;SDS011;10390;53.566;9.980;2022-07-29T06:10:36;4.28;;;3.40;;
20462;SDS011;10390;53.566;9.980;2022-07-29T06:13:02;4.28;;;3.28;;
20462;SDS011;10390;53.566;9.980;2022-07-29T06:15:28;4.22;;;3.65;;
20462;SDS011;10390;53.566;9.980;2022-07-29T06:17:54;4.25;;;3.30;;
20462;SDS011;10390;53.566;9.980;2022-07-29T06:20:20;5.28;;;3.20;;
20462;SDS011;10390;53.566;9.980;2022-07-29T06:22:46;4.20;;;3.10;;
20462;SDS011;10390;53.566;9.980;2022-07-29T06:25:12;4.10;;;3.13;;
20462;SDS011;10390;53.566;9.980;2022-07-29T06:27:38;4.60;;;3.40;;
20462;SDS011;10390;53.566;9.980;2022-07-29T06:30:04;4.78;;;3.58;;
20462;SDS011;10390;53.566;9.980;2022-07-29T06:32:32;3.95;;;3.22;;
20462;SDS011;10390;53.566;9.980;2022-07-29T06:34:58;4.60;;;3.60;;
20462;SDS011;10390;53.566;9.980;2022-07-29T06:37:24;4.50;;;3.30;;
20462;SDS011;10390;53.566;9.980;2022-07-29T06:39:50;4.25;;;3.22;;
20462;SDS011;10390;53.566;9.980;2022-07-29T06:42:36;4.60;;;3.25;;
20462;SDS011;10390;53.566;9.980;2022-07-29T06:45:01;4.95;;;3.50;;
20462;SDS011;10390;53.566;9.980;2022-07-29T06:47:28;4.43;;;2.97;;
20462;SDS011;10390;53.566;9.980;2022-07-29T06:49:54;4.20;;;3.22;;
20462;SDS011;10390;53.566;9.980;2022-07-29T06:52:19;4.40;;;3.47;;
20462;SDS011;10390;53.566;9.980;2022-07-29T06:54:45;4.40;;;3.67;;
20462;SDS011;10390;53.566;9.980;2022-07-29T06:57:13;5.35;;;3.38;;
20462;SDS011;10390;53.566;9.980;2022-07-29T06:59:39;4.03;;;3.25;;
20462;SDS011;10390;53.566;9.980;2022-07-29T07:02:05;4.78;;;3.70;;
20462;SDS011;10390;53.566;9.980;2022-07-29T07:04:31;4.53;;;3.50;;
20462;SDS011;10390;53.566;9.980;2022-07-29T07:06:57;4.60;;;3.67;;
20462;SDS011;10390;53.566;9.980;2022-07-29T07:09:24;4.72;;;4.20;;
20462;SDS011;10390;53.566;9.980;2022-07-29T07:11:50;4.30;;;3.60;;
20462;SDS011;10390;53.566;9.980;2022-07-29T07:14:15;4.30;;;3.50;;
20462;SDS011;10390;53.566;9.980;2022-07-29T07:16:41;5.07;;;3.80;;
20462;SDS011;10390;53.566;9.980;2022-07-29T07:19:07;4.25;;;3.50;;
20462;SDS011;10390;53.566;9.980;2022-07-29T07:21:33;4.72;;;3.47;;
20462;SDS011;10390;53.566;9.980;2022-07-29T07:23:59;4.43;;;3.65;;
20462;SDS011;10390;53.566;9.980;2022-07-29T07:26:25;5.22;;;3.50;;
20462;SDS011;10390;53.566;9.980;2022-07-29T07:28:52;4.72;;;3.65;;
20462;SDS011;10390;53.566;9.980;2022-07-29T07:31:18;4.63;;;3.80;;
20462;SDS011;10390;53.566;9.980;2022-07-29T07:33:44;5.07;;;3.45;;
20462;SDS011;10390;53.566;9.980;2022-07-29T07:36:09;4.32;;;3.22;;
20462;SDS011;10390;53.566;9.980;2022-07-29T07:38:35;4.85;;;3.25;;
20462;SDS011;10390;53.566;9.980;2022-07-29T07:41:01;4.10;;;3.17;;
20462;SDS011;10390;53.566;9.980;2022-07-29T07:43:27;4.18;;;3.50;;
20462;SDS011;10390;53.566;9.980;2022-07-29T07:45:53;4.40;;;3.42;;
20462;SDS011;10390;53.566;9.980;2022-07-29T07:48:19;4.47;;;3.97;;
20462;SDS011;10390;53.566;9.980;2022-07-29T07:50:44;4.72;;;3.42;;
20462;SDS011;10390;53.566;9.980;2022-07-29T07:53:10;4.55;;;3.50;;
20462;SDS011;10390;53.566;9.980;2022-07-29T07:55:40;4.13;;;3.53;;
20462;SDS011;10390;53.566;9.980;2022-07-29T07:58:08;4.38;;;3.40;;
20462;SDS011;10390;53.566;9.980;2022-07-29T08:00:34;4.65;;;3.97;;
20462;SDS011;10390;53.566;9.980;2022-07-29T08:03:00;8.60;;;3.72;;
20462;SDS011;10390;53.566;9.980;2022-07-29T08:05:27;4.55;;;3.55;;
20462;SDS011;10390;53.566;9.980;2022-07-29T08:07:53;4.45;;;3.58;;
20462;SDS011;10390;53.566;9.980;2022-07-29T08:10:19;4.78;;;3.78;;
20462;SDS011;10390;53.566;9.980;2022-07-29T08:13:04;4.60;;;3.88;;
20462;SDS011;10390;53.566;9.980;2022-07-29T08:15:32;5.40;;;4.00;;
20462;SDS011;10390;53.566;9.980;2022-07-29T08:17:58;4.38;;;3.60;;
20462;SDS011;10390;53.566;9.980;2022-07-29T08:20:24;4.55;;;3.53;;
20462;SDS011;10390;53.566;9.980;2022-07-29T08:22:50;4.40;;;3.58;;
20462;SDS011;10390;53.566;9.980;2022-07-29T08:25:18;4.95;;;3.80;;
20462;SDS011;10390;53.566;9.980;2022-07-29T08:27:46;5.80;;;3.60;;
20462;SDS011;10390;53.566;9.980;2022-07-29T08:30:12;4.57;;;3.72;;
20462;SDS011;10390;53.566;9.980;2022-07-29T08:32:39;5.32;;;3.78;;
20462;SDS011;10390;53.566;9.980;2022-07-29T08:35:05;5.18;;;3.92;;
20462;SDS011;10390;53.566;9.980;2022-07-29T08:37:31;6.75;;;3.75;;
20462;SDS011;10390;53.566;9.980;2022-07-29T08:39:57;5.63;;;3.88;;
20462;SDS011;10390;53.566;9.980;2022-07-29T08:42:23;5.00;;;3.50;;
20462;SDS011;10390;53.566;9.980;2022-07-29T08:44:48;5.10;;;3.70;;
20462;SDS011;10390;53.566;9.980;2022-07-29T08:47:15;5.68;;;3.90;;
20462;SDS011;10390;53.566;9.980;2022-07-29T08:49:42;5.72;;;4.15;;
20462;SDS011;10390;53.566;9.980;2022-07-29T08:52:10;4.90;;;3.60;;
20462;SDS011;10390;53.566;9.980;2022-07-29T08:54:36;4.55;;;3.65;;
20462;SDS011;10390;53.566;9.980;2022-07-29T08:57:08;5.70;;;3.95;;
20462;SDS011;10390;53.566;9.980;2022-07-29T08:59:37;5.13;;;3.95;;
20462;SDS011;10390;53.566;9.980;2022-07-29T09:02:06;4.80;;;3.50;;
20462;SDS011;10390;53.566;9.980;2022-07-29T09:04:44;5.30;;;4.22;;
20462;SDS011;10390;53.566;9.980;2022-07-29T09:07:10;5.28;;;3.70;;
20462;SDS011;10390;53.566;9.980;2022-07-29T09:09:41;4.10;;;3.70;;
20462;SDS011;10390;53.566;9.980;2022-07-29T09:12:08;6.43;;;4.03;;
20462;SDS011;10390;53.566;9.980;2022-07-29T09:14:36;5.43;;;3.90;;
20462;SDS011;10390;53.566;9.980;2022-07-29T09:17:03;4.93;;;4.00;;
20462;SDS011;10390;53.566;9.980;2022-07-29T09:19:33;4.97;;;4.10;;
20462;SDS011;10390;53.566;9.980;2022-07-29T09:22:03;4.80;;;3.50;;
20462;SDS011;10390;53.566;9.980;2022-07-29T09:27:00;5.72;;;4.00;;
20462;SDS011;10390;53.566;9.980;2022-07-29T09:29:26;5.78;;;4.20;;
20462;SDS011;10390;53.566;9.980;2022-07-29T09:31:53;6.28;;;4.10;;
20462;SDS011;10390;53.566;9.980;2022-07-29T09:34:24;4.82;;;4.07;;
20462;SDS011;10390;53.566;9.980;2022-07-29T09:36:53;4.60;;;3.80;;
20462;SDS011;10390;53.566;9.980;2022-07-29T09:39:29;5.63;;;3.45;;
20462;SDS011;10390;53.566;9.980;2022-07-29T09:42:09;4.50;;;3.72;;
20462;SDS011;10390;53.566;9.980;2022-07-29T09:44:43;5.72;;;3.83;;
20462;SDS011;10390;53.566;9.980;2022-07-29T09:47:13;5.25;;;3.85;;
20462;SDS011;10390;53.566;9.980;2022-07-29T09:49:53;6.22;;;3.67;;
20462;SDS011;10390;53.566;9.980;2022-07-29T09:52:27;5.32;;;3.83;;
20462;SDS011;10390;53.566;9.980;2022-07-29T09:55:05;5.10;;;3.88;;
20462;SDS011;10390;53.566;9.980;2022-07-29T09:57:32;5.80;;;4.00;;
20462;SDS011;10390;53.566;9.980;2022-07-29T09:59:59;6.10;;;4.22;;
20462;SDS011;10390;53.566;9.980;2022-07-29T10:02:29;7.35;;;4.07;;
20462;SDS011;10390;53.566;9.980;2022-07-29T10:04:56;4.80;;;3.95;;
20462;SDS011;10390;53.566;9.980;2022-07-29T10:07:23;5.40;;;3.53;;
20462;SDS011;10390;53.566;9.980;2022-07-29T10:09:54;5.57;;;3.38;;
20462;SDS011;10390;53.566;9.980;2022-07-29T10:12:22;4.95;;;3.85;;
20462;SDS011;10390;53.566;9.980;2022-07-29T10:14:49;5.40;;;4.00;;
20462;SDS011;10390;53.566;9.980;2022-07-29T10:17:16;5.05;;;3.83;;
20462;SDS011;10390;53.566;9.980;2022-07-29T10:19:44;4.55;;;3.70;;
20462;SDS011;10390;53.566;9.980;2022-07-29T10:22:10;4.97;;;3.60;;
20462;SDS011;10390;53.566;9.980;2022-07-29T10:24:37;6.38;;;4.00;;
20462;SDS011;10390;53.566;9.980;2022-07-29T10:27:08;5.63;;;4.10;;
20462;SDS011;10390;53.566;9.980;2022-07-29T10:29:34;5.07;;;3.78;;
20462;SDS011;10390;53.566;9.980;2022-07-29T10:44:25;4.55;;;3.53;;
20462;SDS011;10390;53.566;9.980;2022-07-29T10:46:52;4.50;;;3.08;;
20462;SDS011;10390;53.566;9.980;2022-07-29T10:49:20;5.20;;;4.03;;
20462;SDS011;10390;53.566;9.980;2022-07-29T10:51:55;6.95;;;3.30;;
20462;SDS011;10390;53.566;9.980;2022-07-29T11:05:06;4.15;;;3.30;;
20462;SDS011;10390;53.566;9.980;2022-07-29T11:10:38;5.70;;;4.00;;
20462;SDS011;10390;53.566;9.980;2022-07-29T11:13:05;6.10;;;3.67;;
20462;SDS011;10390;53.566;9.980;2022-07-29T11:15:51;5.90;;;3.80;;
20462;SDS011;10390;53.566;9.980;2022-07-29T11:18:18;5.72;;;3.65;;
20462;SDS011;10390;53.566;9.980;2022-07-29T11:20:45;5.13;;;3.83;;
20462;SDS011;10390;53.566;9.980;2022-07-29T11:23:25;4.05;;;3.10;;
20462;SDS011;10390;53.566;9.980;2022-07-29T11:28:51;4.50;;;3.50;;
20462;SDS011;10390;53.566;9.980;2022-07-29T11:31:40;4.72;;;3.65;;
20462;SDS011;10390;53.566;9.980;2022-07-29T11:34:32;3.90;;;3.15;;
20462;SDS011;10390;53.566;9.980;2022-07-29T11:39:36;4.90;;;3.70;;
20462;SDS011;10390;53.566;9.980;2022-07-29T11:47:39;5.43;;;3.60;;
20462;SDS011;10390;53.566;9.980;2022-07-29T11:50:08;5.15;;;3.88;;
20462;SDS011;10390;53.566;9.980;2022-07-29T11:52:41;4.38;;;3.63;;
20462;SDS011;10390;53.566;9.980;2022-07-29T11:55:20;4.13;;;3.33;;
20462;SDS011;10390;53.566;9.980;2022-07-29T11:57:48;5.00;;;3.40;;
20462;SDS011;10390;53.566;9.980;2022-07-29T12:00:39;6.85;;;3.55;;
20462;SDS011;10390;53.566;9.980;2022-07-29T12:03:08;4.32;;;3.15;;
20462;SDS011;10390;53.566;9.980;2022-07-29T12:05:42;4.50;;;3.53;;
20462;SDS011;10390;53.566;9.980;2022-07-29T12:08:13;4.50;;;3.33;;
20462;SDS011;10390;53.566;9.980;2022-07-29T12:10:45;5.05;;;3.13;;
20462;SDS011;10390;53.566;9.980;2022-07-29T12:13:12;6.05;;;3.50;;
20462;SDS011;10390;53.566;9.980;2022-07-29T12:15:42;4.93;;;3.22;;
20462;SDS011;10390;53.566;9.980;2022-07-29T12:18:17;5.75;;;3.47;;
20462;SDS011;10390;53.566;9.980;2022-07-29T12:20:45;5.10;;;3.80;;
20462;SDS011;10390;53.566;9.980;2022-07-29T12:23:13;3.97;;;3.30;;
20462;SDS011;10390;53.566;9.980;2022-07-29T12:25:41;4.95;;;3.35;;
20462;SDS011;10390;53.566;9.980;2022-07-29T12:28:10;4.88;;;3.60;;
20462;SDS011;10390;53.566;9.980;2022-07-29T12:30:47;5.97;;;4.00;;
20462;SDS011;10390;53.566;9.980;2022-07-29T12:33:22;5.18;;;3.60;;
20462;SDS011;10390;53.566;9.980;2022-07-29T12:36:00;5.32;;;3.67;;
20462;SDS011;10390;53.566;9.980;2022-07-29T12:38:27;5.68;;;4.07;;
20462;SDS011;10390;53.566;9.980;2022-07-29T12:40:53;9.75;;;4.53;;
20462;SDS011;10390;53.566;9.980;2022-07-29T12:43:21;4.82;;;4.00;;
20462;SDS011;10390;53.566;9.980;2022-07-29T12:45:50;6.40;;;3.95;;
20462;SDS011;10390;53.566;9.980;2022-07-29T12:48:36;6.35;;;3.80;;
20462;SDS011;10390;53.566;9.980;2022-07-29T12:51:04;5.20;;;3.63;;
20462;SDS011;10390;53.566;9.980;2022-07-29T12:53:33;5.05;;;3.78;;
20462;SDS011;10390;53.566;9.980;2022-07-29T12:56:00;5.60;;;3.38;;
20462;SDS011;10390;53.566;9.980;2022-07-29T12:58:40;8.63;;;3.80;;
20462;SDS011;10390;53.566;9.980;2022-07-29T13:06:44;5.82;;;3.70;;
20462;SDS011;10390;53.566;9.980;2022-07-29T13:09:17;5.68;;;3.35;;
20462;SDS011;10390;53.566;9.980;2022-07-29T13:11:48;5.07;;;3.60;;
20462;SDS011;10390;53.566;9.980;2022-07-29T13:14:30;5.13;;;3.53;;
20462;SDS011;10390;53.566;9.980;2022-07-29T13:19:35;5.03;;;3.42;;
20462;SDS011;10390;53.566;9.980;2022-07-29T13:22:10;6.68;;;3.42;;
20462;SDS011;10390;53.566;9.980;2022-07-29T13:24:51;4.65;;;3.25;;
20462;SDS011;10390;53.566;9.980;2022-07-29T13:27:29;5.95;;;3.47;;
20462;SDS011;10390;53.566;9.980;2022-07-29T13:29:57;5.50;;;3.45;;
20462;SDS011;10390;53.566;9.980;2022-07-29T13:32:26;5.57;;;3.60;;
20462;SDS011;10390;53.566;9.980;2022-07-29T13:34:54;6.13;;;3.47;;
20462;SDS011;10390;53.566;9.980;2022-07-29T13:37:25;5.63;;;3.30;;
20462;SDS011;10390;53.566;9.980;2022-07-29T13:39:54;4.30;;;3.40;;
20462;SDS011;10390;53.566;9.980;2022-07-29T13:42:24;4.85;;;3.65;;
20462;SDS011;10390;53.566;9.980;2022-07-29T13:44:51;5.85;;;3.80;;
20462;SDS011;10390;53.566;9.980;2022-07-29T13:47:19;5.50;;;3.38;;
20462;SDS011;10390;53.566;9.980;2022-07-29T13:49:45;6.90;;;3.63;;
20462;SDS011;10390;53.566;9.980;2022-07-29T13:52:11;6.15;;;3.33;;
20462;SDS011;10390;53.566;9.980;2022-07-29T13:54:37;4.22;;;3.40;;
20462;SDS011;10390;53.566;9.980;2022-07-29T13:57:06;5.10;;;3.30;;
20462;SDS011;10390;53.566;9.980;2022-07-29T13:59:32;4.55;;;3.70;;
20462;SDS011;10390;53.566;9.980;2022-07-29T14:01:59;5.07;;;3.70;;
20462;SDS011;10390;53.566;9.980;2022-07-29T14:04:25;7.53;;;3.97;;
20462;SDS011;10390;53.566;9.980;2022-07-29T14:06:51;4.90;;;3.60;;
20462;SDS011;10390;53.566;9.980;2022-07-29T14:09:17;5.53;;;3.25;;
20462;SDS011;10390;53.566;9.980;2022-07-29T14:11:43;4.88;;;3.72;;
20462;SDS011;10390;53.566;9.980;2022-07-29T14:14:08;5.90;;;3.70;;
20462;SDS011;10390;53.566;9.980;2022-07-29T14:16:35;5.13;;;3.90;;
20462;SDS011;10390;53.566;9.980;2022-07-29T14:19:01;7.07;;;3.67;;
20462;SDS011;10390;53.566;9.980;2022-07-29T14:21:27;5.43;;;3.70;;
20462;SDS011;10390;53.566;9.980;2022-07-29T14:23:53;5.10;;;3.60;;
20462;SDS011;10390;53.566;9.980;2022-07-29T14:26:19;5.60;;;3.38;;
20462;SDS011;10390;53.566;9.980;2022-07-29T14:28:47;5.35;;;4.05;;
20462;SDS011;10390;53.566;9.980;2022-07-29T14:31:13;4.68;;;3.60;;
20462;SDS011;10390;53.566;9.980;2022-07-29T14:33:39;4.72;;;3.33;;
20462;SDS011;10390;53.566;9.980;2022-07-29T14:36:06;4.93;;;3.67;;
20462;SDS011;10390;53.566;9.980;2022-07-29T14:38:31;5.07;;;3.78;;
20462;SDS011;10390;53.566;9.980;2022-07-29T14:40:57;5.32;;;3.67;;
20462;SDS011;10390;53.566;9.980;2022-07-29T14:43:23;4.72;;;3.55;;
20462;SDS011;10390;53.566;9.980;2022-07-29T14:45:49;4.72;;;3.10;;
20462;SDS011;10390;53.566;9.980;2022-07-29T14:48:14;4.82;;;3.40;;
20462;SDS011;10390;53.566;9.980;2022-07-29T14:50:40;5.53;;;3.50;;
20462;SDS011;10390;53.566;9.980;2022-07-29T14:53:06;5.32;;;3.80;;
20462;SDS011;10390;53.566;9.980;2022-07-29T14:55:32;5.32;;;3.60;;
20462;SDS011;10390;53.566;9.980;2022-07-29T14:57:58;5.53;;;3.70;;
20462;SDS011;10390;53.566;9.980;2022-07-29T15:00:24;5.43;;;3.90;;
20462;SDS011;10390;53.566;9.980;2022-07-29T15:02:51;5.38;;;3.67;;
20462;SDS011;10390;53.566;9.980;2022-07-29T15:05:16;4.85;;;3.60;;
20462;SDS011;10390;53.566;9.980;2022-07-29T15:07:42;5.00;;;3.60;;
20462;SDS011;10390;53.566;9.980;2022-07-29T15:10:08;5.57;;;3.65;;
20462;SDS011;10390;53.566;9.980;2022-07-29T15:12:34;5.05;;;3.60;;
20462;SDS011;10390;53.566;9.980;2022-07-29T15:15:00;4.65;;;3.35;;
20462;SDS011;10390;53.566;9.980;2022-07-29T15:17:26;4.90;;;3.47;;
20462;SDS011;10390;53.566;9.980;2022-07-29T15:19:52;6.15;;;3.95;;
20462;SDS011;10390;53.566;9.980;2022-07-29T15:22:18;4.60;;;3.70;;
20462;SDS011;10390;53.566;9.980;2022-07-29T15:24:43;4.60;;;3.28;;
20462;SDS011;10390;53.566;9.980;2022-07-29T15:27:09;4.65;;;3.33;;
20462;SDS011;10390;53.566;9.980;2022-07-29T15:29:41;5.18;;;3.42;;
20462;SDS011;10390;53.566;9.980;2022-07-29T15:32:08;5.05;;;3.63;;
20462;SDS011;10390;53.566;9.980;2022-07-29T15:34:35;4.55;;;3.30;;
20462;SDS011;10390;53.566;9.980;2022-07-29T15:37:02;4.82;;;3.42;;
20462;SDS011;10390;53.566;9.980;2022-07-29T15:39:29;5.00;;;3.88;;
20462;SDS011;10390;53.566;9.980;2022-07-29T15:41:55;5.15;;;3.72;;
20462;SDS011;10390;53.566;9.980;2022-07-29T15:44:21;5.47;;;3.67;;
20462;SDS011;10390;53.566;9.980;2022-07-29T15:46:47;5.00;;;3.60;;
20462;SDS011;10390;53.566;9.980;2022-07-29T15:49:36;5.88;;;3.63;;
20462;SDS011;10390;53.566;9.980;2022-07-29T15:52:06;4.47;;;3.03;;
20462;SDS011;10390;53.566;9.980;2022-07-29T15:54:35;4.97;;;3.85;;
20462;SDS011;10390;53.566;9.980;2022-07-29T15:57:03;5.03;;;3.65;;